Time;durP1;ratioP1;P1;durP2;ratioP2;P2;SDS_P1;SDS_P2;PMS_P1;PMS_P2;Temp;Humidity;BMP_temperature;BMP_pressure;BME280_temperature;BME280_humidity;BME280_pressure;Samples;Min_cycle;Max_cycle;Signal;HPM_P1;HPM_P2
2023/04/24 00:04:01;;;;;;;;;;;;;;;13.37;82.76;99965.56;20802277;28;20288;-56
2023/04/24 00:14:23;;;;;;;;;;;;;;;13.32;85.11;99959.81;20797935;28;19929;-55
2023/04/24 00:24:44;;;;;;;;;;;;;;;13.18;80.00;99953.69;20812929;28;19933;-56
2023/04/24 00:35:06;;;;;;;;;;;;;;;12.98;76.59;99952.97;20781498;28;19929;-57
2023/04/24 00:45:27;;;;;;;;;;;;;;;12.71;76.72;99964.81;20789284;28;19929;-56
2023/04/24 00:55:51;;;;;;;;;;;;;;;12.53;78.56;99946.78;20789641;28;20300;-57
2023/04/24 01:06:13;;;;;;;;;;;;;;;12.43;78.71;99932.63;20790671;28;19933;-56
2023/04/24 01:16:35;;;;;;;;;;;;;;;12.43;79.71;99928.28;20798534;28;19925;-57
2023/04/24 01:26:57;;;;;;;;;;;;;;;12.47;78.85;99919.38;20792475;28;19984;-57
2023/04/24 01:37:18;;;;;;;;;;;;;;;12.42;77.33;99910.16;20797933;28;19925;-56
2023/04/24 01:47:40;;;;;;;;;;;;;;;12.40;76.71;99902.47;20803417;28;20526;-56
2023/04/24 01:58:02;;;;;;;;;;;;;;;12.43;76.97;99904.06;20800022;28;20024;-56
2023/04/24 02:08:23;;;;;;;;;;;;;;;12.38;77.75;99896.53;20793240;28;19926;-57
2023/04/24 02:18:45;;;;;;;;;;;;;;;12.40;78.59;99886.91;20788140;28;19926;-57
2023/04/24 02:29:06;;;;;;;;;;;;;;;12.37;77.00;99884.47;20800997;28;20465;-57
2023/04/24 02:39:28;;;;;;;;;;;;;;;12.28;78.37;99881.53;20795459;28;19986;-57
2023/04/24 02:49:49;;;;;;;;;;;;;;;12.29;76.52;99889.22;20783210;28;19929;-55
2023/04/24 03:00:11;;;;;;;;;;;;;;;12.14;78.52;99879.66;20811001;28;20003;-55
2023/04/24 03:10:32;;;;;;;;;;;;;;;12.12;78.56;99886.69;20795035;28;19929;-56
2023/04/24 03:20:54;;;;;;;;;;;;;;;12.11;77.94;99880.66;20786165;28;19986;-55
2023/04/24 03:31:16;;;;;;;;;;;;;;;12.08;78.22;99886.00;20808484;28;19928;-57
2023/04/24 03:41:37;;;;;;;;;;;;;;;12.08;77.73;99885.16;20780917;28;19929;-57
2023/04/24 03:51:59;;;;;;;;;;;;;;;12.10;78.02;99883.31;20802405;28;19975;-57
2023/04/24 04:02:20;;;;;;;;;;;;;;;12.12;78.46;99902.25;20795043;28;19925;-57
2023/04/24 04:12:42;;;;;;;;;;;;;;;12.03;78.77;99907.91;20803316;28;19979;-55
2023/04/24 04:23:03;;;;;;;;;;;;;;;11.98;80.24;99904.66;20793608;28;19975;-56
2023/04/24 04:33:25;;;;;;;;;;;;;;;11.90;80.31;99917.19;20808504;28;19979;-57
2023/04/24 04:43:47;;;;;;;;;;;;;;;11.84;80.24;99927.88;20793267;28;19925;-54
2023/04/24 04:54:08;;;;;;;;;;;;;;;11.75;80.78;99934.34;20792340;28;19929;-54
2023/04/24 05:04:30;;;;;;;;;;;;;;;11.67;81.54;99938.22;20792388;28;19936;-57
2023/04/24 05:14:52;;;;;;;;;;;;;;;11.68;81.72;99935.53;20794082;28;19935;-54
2023/04/24 05:25:13;;;;;;;;;;;;;;;11.69;81.03;99950.19;20800438;28;19933;-57
2023/04/24 05:35:34;;;;;;;;;;;;;;;11.70;81.02;99967.41;20779819;28;19991;-56
2023/04/24 05:45:56;;;;;;;;;;;;;;;11.72;80.59;99967.38;20794760;28;20416;-57
2023/04/24 05:56:18;;;;;;;;;;;;;;;11.81;79.17;99969.50;20805896;28;20639;-56
2023/04/24 06:06:40;;;;;;;;;;;;;;;11.90;79.74;99972.47;20802846;28;20691;-57
2023/04/24 06:17:01;;;;;;;;;;;;;;;11.88;79.20;99983.84;20801115;28;19929;-56
2023/04/24 06:27:23;;;;;;;;;;;;;;;11.90;77.86;99979.41;20801151;28;20385;-57
2023/04/24 06:37:44;;;;;;;;;;;;;;;11.93;78.83;99987.03;20797800;28;20377;-55
2023/04/24 06:48:06;;;;;;;;;;;;;;;11.99;78.24;99986.75;20798852;28;19925;-57
2023/04/24 06:58:27;;;;;;;;;;;;;;;12.09;77.85;99981.03;20795059;28;20299;-56
2023/04/24 07:08:49;;;;;;;;;;;;;;;12.23;77.66;99995.06;20805225;28;19925;-56
2023/04/24 07:19:10;;;;;;;;;;;;;;;12.24;78.52;100009.69;20796612;28;20051;-57
2023/04/24 07:29:32;;;;;;;;;;;;;;;12.08;78.31;100010.47;20786107;28;19929;-57
2023/04/24 07:39:54;;;;;;;;;;;;;;;12.17;77.18;100014.34;20798149;28;19987;-56
2023/04/24 07:50:16;;;;;;;;;;;;;;;12.28;76.77;100019.84;20784383;28;20010;-57
2023/04/24 08:00:37;;;;;;;;;;;;;;;12.25;75.45;100017.38;20786868;28;19971;-57
2023/04/24 08:10:59;;;;;;;;;;;;;;;12.29;75.79;100031.91;20797283;28;19925;-57
2023/04/24 08:21:21;;;;;;;;;;;;;;;12.36;75.33;100046.22;20790270;28;19971;-57
2023/04/24 08:31:42;;;;;;;;;;;;;;;12.56;74.56;100043.47;20792200;28;19929;-57
2023/04/24 08:42:07;;;;;;;;;;;;;;;12.72;74.43;100048.75;20801132;28;19959;-57
2023/04/24 08:52:29;;;;;;;;;;;;;;;12.66;73.16;100049.03;20802748;28;19961;-56
2023/04/24 09:02:52;;;;;;;;;;;;;;;12.49;74.94;100057.69;20790796;28;19983;-55
2023/04/24 09:13:14;;;;;;;;;;;;;;;12.46;73.21;100063.03;20797790;28;19983;-57
2023/04/24 09:23:35;;;;;;;;;;;;;;;12.35;74.41;100074.84;20797054;28;20014;-56
2023/04/24 09:33:58;;;;;;;;;;;;;;;12.13;76.75;100091.47;20781018;28;19933;-56
2023/04/24 09:44:23;;;;;;;;;;;;;;;11.92;79.00;100095.06;20788386;28;20353;-55
2023/04/24 09:54:52;;;;;;;;;;;;;;;11.86;80.20;100094.53;20784970;28;19945;-55
2023/04/24 10:05:15;;;;;;;;;;;;;;;11.72;81.50;100104.72;20783490;28;19932;-55
2023/04/24 10:15:37;;;;;;;;;;;;;;;11.70;80.97;100099.59;20789829;28;19960;-55
2023/04/24 10:26:00;;;;;;;;;;;;;;;11.69;81.08;100102.25;20796787;28;19979;-54
2023/04/24 10:36:23;;;;;;;;;;;;;;;11.68;81.45;100113.53;20793777;28;20074;-55
2023/04/24 10:46:47;;;;;;;;;;;;;;;11.61;83.30;100122.47;20801177;28;19944;-55
2023/04/24 10:57:18;;;;;;;;;;;;;;;11.41;82.92;100125.13;20813871;28;20035;-56
2023/04/24 11:08:02;;;;;;;;;;;;;;;11.40;85.92;100137.22;20803296;28;20027;-56
2023/04/24 11:18:36;;;;;;;;;;;;;;;11.34;86.57;100147.84;20795056;28;19937;-56
2023/04/24 11:29:07;;;;;;;;;;;;;;;11.18;87.99;100149.44;20803946;28;19925;-53
2023/04/24 11:39:36;;;;;;;;;;;;;;;11.22;85.88;100176.03;20799294;28;19925;-55
2023/04/24 11:49:58;;;;;;;;;;;;;;;11.21;86.59;100175.19;20801513;28;20003;-53
2023/04/24 12:00:21;;;;;;;;;;;;;;;11.21;87.23;100211.44;20798501;28;20206;-55
2023/04/24 12:10:42;;;;;;;;;;;;;;;10.86;87.57;100238.81;20794479;28;20033;-55
2023/04/24 12:21:20;;;;;;;;;;;;;;;10.54;86.80;100275.47;20785350;28;19974;-55
2023/04/24 12:31:43;;;;;;;;;;;;;;;10.27;85.54;100304.13;20784206;28;19925;-53
2023/04/24 12:42:05;;;;;;;;;;;;;;;10.08;88.56;100332.34;20796657;28;19974;-55
2023/04/24 12:52:27;;;;;;;;;;;;;;;9.97;87.65;100350.00;20800060;28;19929;-55
2023/04/24 13:02:49;;;;;;;;;;;;;;;9.90;90.06;100379.53;20791464;28;19971;-56
2023/04/24 13:13:11;;;;;;;;;;;;;;;9.91;88.76;100386.38;20795371;28;20361;-55
2023/04/24 13:23:32;;;;;;;;;;;;;;;9.89;87.34;100408.84;20796520;28;19929;-55
2023/04/24 13:33:53;;;;;;;;;;;;;;;9.87;88.04;100410.66;20797126;28;19932;-55
2023/04/24 13:44:16;;;;;;;;;;;;;;;9.90;88.08;100428.63;20798628;28;20606;-55
2023/04/24 13:54:37;;;;;;;;;;;;;;;10.00;87.50;100445.50;20791207;28;19929;-55
2023/04/24 14:04:59;;;;;;;;;;;;;;;10.06;88.35;100442.72;20798478;28;19924;-55
2023/04/24 14:15:21;;;;;;;;;;;;;;;10.08;88.45;100452.13;20791949;28;19971;-55
2023/04/24 14:25:42;;;;;;;;;;;;;;;10.06;86.48;100458.22;20811909;28;19991;-55
2023/04/24 14:36:05;;;;;;;;;;;;;;;9.92;85.10;100474.22;20804333;28;19952;-55
2023/04/24 14:46:26;;;;;;;;;;;;;;;9.81;84.15;100486.66;20808244;28;19925;-56
2023/04/24 14:56:48;;;;;;;;;;;;;;;9.90;85.23;100496.69;20801227;28;19937;-56
2023/04/24 15:07:10;;;;;;;;;;;;;;;9.98;84.89;100509.34;20807642;28;20167;-56
2023/04/24 15:17:31;;;;;;;;;;;;;;;9.99;84.40;100513.63;20793689;28;19929;-56
2023/04/24 15:27:53;;;;;;;;;;;;;;;9.94;84.98;100521.50;20802575;28;19929;-55
2023/04/24 15:38:14;;;;;;;;;;;;;;;9.95;85.03;100530.13;20792308;28;20324;-55
2023/04/24 15:48:38;;;;;;;;;;;;;;;9.99;83.72;100537.72;20787875;28;19925;-56
2023/04/24 15:58:59;;;;;;;;;;;;;;;10.05;84.27;100550.44;20787094;28;19932;-55
2023/04/24 16:09:21;;;;;;;;;;;;;;;10.01;83.36;100554.03;20813216;28;19932;-54
2023/04/24 16:19:42;;;;;;;;;;;;;;;9.94;84.03;100572.38;20792611;28;20384;-55
2023/04/24 16:30:04;;;;;;;;;;;;;;;9.89;84.87;100574.22;20800261;28;19976;-55
2023/04/24 16:40:26;;;;;;;;;;;;;;;9.94;87.28;100562.84;20797567;28;20369;-56
2023/04/24 16:50:47;;;;;;;;;;;;;;;9.95;84.39;100584.38;20799235;28;19994;-53
2023/04/24 17:01:08;;;;;;;;;;;;;;;9.95;83.06;100579.22;20798834;28;19948;-56
2023/04/24 17:11:30;;;;;;;;;;;;;;;9.97;83.19;100577.44;20787863;28;20288;-55
2023/04/24 17:21:51;;;;;;;;;;;;;;;9.96;83.33;100584.34;20797577;28;20289;-54
2023/04/24 17:32:13;;;;;;;;;;;;;;;9.94;81.93;100577.53;20794056;28;19979;-55
2023/04/24 17:42:36;;;;;;;;;;;;;;;9.96;81.16;100586.09;20795365;28;19932;-55
2023/04/24 17:52:58;;;;;;;;;;;;;;;9.87;81.70;100591.56;20819918;28;20384;-55
2023/04/24 18:03:20;;;;;;;;;;;;;;;9.76;82.92;100598.78;20811259;28;19960;-56
2023/04/24 18:13:41;;;;;;;;;;;;;;;9.59;84.33;100607.03;20810272;28;19932;-56
2023/04/24 18:24:03;;;;;;;;;;;;;;;9.53;84.83;100601.19;20806458;28;19972;-55
2023/04/24 18:34:25;;;;;;;;;;;;;;;9.47;85.58;100625.47;20803402;28;19979;-56
2023/04/24 18:44:46;;;;;;;;;;;;;;;9.48;85.32;100623.72;20809614;28;19983;-55
2023/04/24 18:55:08;;;;;;;;;;;;;;;9.42;86.70;100629.06;20805523;28;19929;-56
2023/04/24 19:05:30;;;;;;;;;;;;;;;9.38;86.47;100642.94;20802899;28;19967;-56
2023/04/24 19:15:51;;;;;;;;;;;;;;;9.38;86.91;100643.81;20803221;28;19925;-55
2023/04/24 19:26:13;;;;;;;;;;;;;;;9.41;86.20;100658.38;20809208;28;19983;-55
2023/04/24 19:36:35;;;;;;;;;;;;;;;9.41;87.50;100658.38;20803274;28;20256;-55
2023/04/24 19:46:56;;;;;;;;;;;;;;;9.39;85.03;100685.97;20800749;28;19933;-56
2023/04/24 19:57:18;;;;;;;;;;;;;;;9.29;84.57;100689.69;20799479;28;20320;-56
2023/04/24 20:07:39;;;;;;;;;;;;;;;9.16;84.17;100693.50;20797242;28;19925;-55
2023/04/24 20:18:00;;;;;;;;;;;;;;;9.11;84.33;100697.03;20797846;28;19925;-56
2023/04/24 20:28:23;;;;;;;;;;;;;;;9.10;84.18;100702.25;20802465;28;19929;-54
2023/04/24 20:38:45;;;;;;;;;;;;;;;9.06;84.38;100714.34;20799667;28;19970;-56
2023/04/24 20:49:07;;;;;;;;;;;;;;;8.99;84.44;100714.59;20779209;28;20384;-56
2023/04/24 20:59:29;;;;;;;;;;;;;;;8.92;85.06;100711.28;20787558;28;19925;-56
2023/04/24 21:09:50;;;;;;;;;;;;;;;8.91;84.67;100721.66;20775103;28;19925;-56
2023/04/24 21:20:11;;;;;;;;;;;;;;;8.90;85.11;100728.53;20803497;28;19944;-54
2023/04/24 21:30:33;;;;;;;;;;;;;;;8.89;85.49;100721.69;20808200;28;19929;-55
2023/04/24 21:40:54;;;;;;;;;;;;;;;8.90;85.17;100728.53;20781188;28;20308;-53
2023/04/24 21:51:16;;;;;;;;;;;;;;;8.92;86.03;100726.78;20784458;28;19929;-55
2023/04/24 22:01:38;;;;;;;;;;;;;;;8.94;85.91;100730.16;20794950;28;19936;-55
2023/04/24 22:12:00;;;;;;;;;;;;;;;8.94;86.90;100732.75;20793498;28;20066;-56
2023/04/24 22:22:21;;;;;;;;;;;;;;;8.94;88.42;100740.50;20794285;28;19928;-54
2023/04/24 22:32:43;;;;;;;;;;;;;;;8.98;85.45;100746.41;20798575;28;20329;-54
2023/04/24 22:43:05;;;;;;;;;;;;;;;9.00;86.62;100745.50;20806882;28;20377;-54
2023/04/24 22:53:27;;;;;;;;;;;;;;;8.98;86.59;100777.38;20798945;28;20022;-55
2023/04/24 23:03:50;;;;;;;;;;;;;;;8.84;88.78;100785.47;20803304;28;19933;-53
2023/04/24 23:14:12;;;;;;;;;;;;;;;8.74;89.73;100783.13;20805269;28;19933;-54
2023/04/24 23:24:33;;;;;;;;;;;;;;;8.70;87.39;100805.56;20803645;28;19925;-55
2023/04/24 23:34:55;;;;;;;;;;;;;;;8.68;88.12;100809.91;20793460;28;20308;-56
2023/04/24 23:45:16;;;;;;;;;;;;;;;8.63;86.26;100810.88;20801681;28;19940;-55
2023/04/24 23:55:38;;;;;;;;;;;;;;;8.57;86.01;100817.03;20804054;28;19925;-53
